Lewes Beach, Delaware
Current Conditions -  °F | °C
As of 6:54 PM on Friday 21 Nov 2014 (Local Time) from KGED Reporting Station
Clear Clear  
Wind Chill: 31°   Ceiling: Unl
Heat Index: 31°   Visibility: 10mi
Dew Point: 10°   Wind: 0mph
Humidity: 42%   Direction: NA
Pressure: 30.54"   Gusts: NA
Location:  38.7339°N, 75.1733°W
Report Text: KGED 212354Z AUTO 00000KT 10SM CLR M01/M12 A3054 RMK AO2 SLP342 T10061122 10028 21011 51025
Loading
Personal Weather Stations






























Interactive Weather Map New forecast layout! Learn more

10-Day Weather Forecast

Advertisements
Track Severe Weather on mobile